Mount Zion, GA (30150)

4:50 PM EDT on May 27, 2015 (GMT -0400)
Rainey Rd. | | Change Station
CLOSE
Current Station
Personal Weather Station
Location: Temple, GA
Elevation: 1263 ft
Nearby Weather Stations

Elev 1263 ft 33.79 °N, 85.01 °W | Updated 8 minutes ago

Partly Cloudy
Partly Cloudy
83.1 °F
Feels Like 85 °F
N
4.7
Wind Variable Wind from ESE

Today
High -- | Low -- °F
--% Chance of Precip.
Yesterday
High -- | Low -- °F
Precip. -- in
6:33 AM 8:42 PM
Waxing Gibbous, 70% visible
Pressure 30.22 in
Visibility 10.0 miles
Clouds Mostly Cloudy 3200 ft
Heat Index 85 °F
Dew Point 66 °F
Humidity 56%
Rainfall 0.00 in
Snow Depth Not available.
UV 5 out of 12
Pollen .60 out of 12
Air Quality Not available.
Flu Activity Sporadic
METAR KPUJ 272015Z AUTO 00000KT 10SM BKN032 29/21 A3022 RMK AO2

More Conditions Fewer Conditions

Pressure 30.22 in
Visibility 10.0 miles
Clouds Mostly Cloudy 3200 ft
Heat Index 85 °F
Dew Point 66 °F
Humidity 56%
Rainfall 0.00 in
Snow Depth Not available.
UV 5 out of 12
Pollen .60 out of 12
Air Quality Not available.
Flu Activity Sporadic
METAR KPUJ 272015Z AUTO 00000KT 10SM BKN032 29/21 A3022 RMK AO2

More Conditions Fewer Conditions

10-Day Weather Forecast

Almanac

Astronomy

May. 27, 2015 Rise Set
Actual Time
Civil Twilight
Nautical Twilight
Astronomical Twilight
Moon
Length of Visible Light
Length of Day
Tomorrow will be .
, % of the Moon is Illuminated

Today's Extremes

State Highs State Lows

Community

WunderPhotos

Upload Photos

1,824,782 photos uploaded!

WunderBlogs® & News

Nearby

Air Quality

  Air Quality AQ Index Pollutant
Not available.

Snow Depth

Station Depth Elevation

Earthquake Activity

City Distance Mag. Time & Date
Minimum magnitude displayed is 2.5.

Coastal Water Temperatures

Place Temperature

Stations

Nearby Weather Stations

Station Location Temp. Windchill Dew Point Humidity Wind Precip. Elev Updated Type